Time;durP1;ratioP1;P1;durP2;ratioP2;P2;SDS_P1;SDS_P2;PMS_P1;PMS_P2;Temp;Humidity;BMP_temperature;BMP_pressure;BME280_temperature;BME280_humidity;BME280_pressure;Samples;Min_cycle;Max_cycle;Signal;HPM_P1;HPM_P2
2023/10/05 00:02:10;;;;;;;11.30;3.50;;;11.00;99.90;;;;;;5016965;28;20079;-68
2023/10/05 00:04:40;;;;;;;;;;;11.10;99.90;;;;;;5017632;28;20195;-68
2023/10/05 00:07:08;;;;;;;6.95;3.08;;;11.30;99.90;;;;;;5017347;28;19905;-68
2023/10/05 00:09:33;;;;;;;9.40;2.83;;;11.40;99.90;;;;;;5017260;28;20029;-68
2023/10/05 00:12:02;;;;;;;10.23;3.33;;;11.30;99.90;;;;;;5017441;28;20053;-68
2023/10/05 00:14:27;;;;;;;5.22;2.60;;;11.30;99.90;;;;;;5017772;28;20022;-69
2023/10/05 00:16:55;;;;;;;8.80;3.30;;;11.10;99.90;;;;;;5016935;28;20030;-68
2023/10/05 00:19:21;;;;;;;16.75;3.80;;;11.00;99.90;;;;;;5017371;28;20045;-68
2023/10/05 00:21:51;;;;;;;5.63;2.83;;;10.90;99.90;;;;;;5017198;28;20100;-68
2023/10/05 00:24:23;;;;;;;7.90;3.30;;;10.80;99.90;;;;;;5017112;28;20101;-68
2023/10/05 00:26:50;;;;;;;11.32;3.28;;;10.80;99.90;;;;;;5017556;28;20030;-68
2023/10/05 00:29:21;;;;;;;9.93;3.05;;;11.10;99.90;;;;;;5016106;28;20026;-68
2023/10/05 00:31:47;;;;;;;9.18;2.95;;;11.10;99.90;;;;;;5016108;28;20112;-68
2023/10/05 00:34:24;;;;;;;7.38;3.10;;;11.20;99.90;;;;;;5016002;28;20026;-68
2023/10/05 00:36:51;;;;;;;10.00;3.65;;;11.30;99.90;;;;;;5016729;28;20030;-69
2023/10/05 00:39:19;;;;;;;11.00;4.07;;;11.40;99.90;;;;;;5016976;28;20034;-68
2023/10/05 00:41:49;;;;;;;7.95;3.45;;;11.40;99.90;;;;;;5016926;28;20018;-68
2023/10/05 00:44:15;;;;;;;7.03;3.28;;;11.30;99.90;;;;;;5017092;28;20014;-68
2023/10/05 00:46:48;;;;;;;8.18;2.78;;;11.30;99.90;;;;;;5017356;28;20025;-68
2023/10/05 00:49:25;;;;;;;6.90;2.70;;;11.20;99.90;;;;;;5016939;28;20026;-68
2023/10/05 00:54:40;;;;;;;9.82;2.92;;;11.00;99.90;;;;;;5017104;28;20083;-68
2023/10/05 00:57:09;;;;;;;6.75;2.88;;;11.00;99.90;;;;;;5016821;28;20022;-69
2023/10/05 00:59:36;;;;;;;5.43;2.20;;;11.10;99.90;;;;;;5016783;28;20044;-68
2023/10/05 01:02:14;;;;;;;7.43;3.25;;;11.10;99.90;;;;;;5016618;28;20072;-69
2023/10/05 01:07:28;;;;;;;8.85;3.30;;;11.30;99.90;;;;;;5016905;28;20026;-68
2023/10/05 01:14:58;;;;;;;8.70;3.05;;;10.90;99.90;;;;;;5020706;28;19905;-68
2023/10/05 01:17:28;;;;;;;11.68;3.65;;;10.80;99.90;;;;;;5020196;28;20026;-68
2023/10/05 01:19:58;;;;;;;7.30;2.90;;;10.90;99.90;;;;;;5020365;28;20048;-68
2023/10/05 01:22:32;;;;;;;5.63;2.72;;;11.00;99.90;;;;;;5020228;28;20025;-68
2023/10/05 01:24:59;;;;;;;7.70;2.83;;;11.00;99.90;;;;;;5020592;28;20026;-68
2023/10/05 01:27:29;;;;;;;10.68;3.10;;;10.90;99.90;;;;;;5020498;28;20022;-68
2023/10/05 01:29:55;;;;;;;7.35;2.83;;;10.80;99.90;;;;;;5019148;28;20025;-68
2023/10/05 01:32:21;;;;;;;6.68;2.58;;;10.80;99.90;;;;;;5019103;28;20029;-68
2023/10/05 01:34:53;;;;;;;5.75;2.95;;;10.90;99.90;;;;;;5020157;28;20057;-68
2023/10/05 01:37:23;;;;;;;7.32;3.55;;;10.90;99.90;;;;;;5018778;28;20052;-68
2023/10/05 01:39:49;;;;;;;9.73;2.92;;;10.90;99.90;;;;;;5019722;28;20025;-69
2023/10/05 01:42:16;;;;;;;8.30;2.78;;;10.90;99.90;;;;;;5019781;28;20095;-69
2023/10/05 01:44:47;;;;;;;6.10;3.25;;;11.00;99.90;;;;;;5019679;28;20022;-69
2023/10/05 01:47:17;;;;;;;9.40;3.22;;;10.90;99.90;;;;;;5019776;28;20018;-68
2023/10/05 01:49:45;;;;;;;8.70;3.78;;;11.00;99.90;;;;;;5019724;28;20029;-68
2023/10/05 01:52:11;;;;;;;16.02;4.00;;;11.00;99.90;;;;;;5019486;28;20050;-69
2023/10/05 01:54:36;;;;;;;8.60;4.03;;;10.80;99.90;;;;;;5019639;28;20148;-68
2023/10/05 01:57:07;;;;;;;11.43;2.95;;;10.70;99.90;;;;;;5019419;28;20028;-68
2023/10/05 01:59:34;;;;;;;13.98;3.17;;;10.80;99.90;;;;;;5019777;28;20022;-69
2023/10/05 02:02:10;;;;;;;8.52;3.35;;;10.80;99.90;;;;;;5018597;28;20018;-68
2023/10/05 02:04:44;;;;;;;9.10;3.00;;;10.80;99.90;;;;;;5019513;28;20022;-68
2023/10/05 02:07:11;;;;;;;13.77;3.65;;;10.90;99.90;;;;;;5019338;28;20022;-69
2023/10/05 02:09:38;;;;;;;7.30;2.95;;;10.90;99.90;;;;;;5019532;28;20029;-68
2023/10/05 02:12:06;;;;;;;8.15;2.97;;;10.80;99.90;;;;;;5019274;28;20026;-68
2023/10/05 02:14:40;;;;;;;9.23;3.17;;;10.90;99.90;;;;;;5018311;28;20030;-68
2023/10/05 02:17:07;;;;;;;9.65;3.40;;;11.10;99.90;;;;;;5044480;22;20017;-73
2023/10/05 02:19:36;;;;;;;7.82;3.13;;;11.20;99.90;;;;;;5037861;28;20040;-73
2023/10/05 02:22:04;;;;;;;12.23;3.42;;;11.00;99.90;;;;;;5038395;28;20032;-73
2023/10/05 02:24:30;;;;;;;9.68;3.40;;;11.00;99.90;;;;;;5037808;28;20025;-73
2023/10/05 02:27:09;;;;;;;9.63;3.80;;;11.10;99.90;;;;;;5039114;28;20175;-73
2023/10/05 02:29:35;;;;;;;9.07;3.42;;;11.10;99.90;;;;;;5038800;28;20022;-73
2023/10/05 02:34:33;;;;;;;15.30;4.22;;;11.10;99.90;;;;;;5039076;28;20037;-73
2023/10/05 02:37:00;;;;;;;10.43;3.20;;;11.00;99.90;;;;;;5038258;28;20045;-73
2023/10/05 02:39:26;;;;;;;9.93;3.25;;;10.90;99.90;;;;;;5038514;28;20100;-73
2023/10/05 02:41:54;;;;;;;12.15;3.70;;;10.90;99.90;;;;;;5038354;28;20022;-73
2023/10/05 02:46:48;;;;;;;10.15;3.40;;;10.80;99.90;;;;;;5038554;28;20026;-73
2023/10/05 02:49:25;;;;;;;10.60;4.32;;;10.70;99.90;;;;;;5037693;28;20035;-68
2023/10/05 02:51:53;;;;;;;7.22;3.10;;;10.80;99.90;;;;;;5038328;28;20018;-68
2023/10/05 02:54:30;;;;;;;8.27;3.15;;;10.70;99.90;;;;;;5038104;28;20025;-68
2023/10/05 02:56:56;;;;;;;8.43;3.80;;;10.80;99.90;;;;;;5037961;28;20037;-68
2023/10/05 02:59:26;;;;;;;6.07;2.95;;;10.70;99.90;;;;;;5038324;28;20022;-68
2023/10/05 03:01:54;;;;;;;9.15;3.22;;;10.70;99.90;;;;;;5037995;28;20056;-68
2023/10/05 03:04:22;;;;;;;8.45;2.92;;;10.80;99.90;;;;;;5038096;28;20013;-73
2023/10/05 03:06:52;;;;;;;6.32;2.63;;;10.90;99.90;;;;;;5036981;28;20051;-73
2023/10/05 03:09:18;;;;;;;8.43;3.33;;;11.00;99.90;;;;;;5037842;28;20156;-73
2023/10/05 03:11:46;;;;;;;7.70;3.15;;;10.90;99.90;;;;;;5036903;28;20052;-68
2023/10/05 03:14:12;;;;;;;11.25;3.00;;;11.00;99.90;;;;;;5036852;28;20021;-68
2023/10/05 03:16:47;;;;;;;8.98;3.92;;;11.00;99.90;;;;;;5036802;28;20040;-66
2023/10/05 03:19:21;;;;;;;9.82;3.70;;;10.90;99.90;;;;;;5037967;28;20025;-66
2023/10/05 03:21:49;;;;;;;11.73;3.45;;;11.00;99.90;;;;;;5036735;28;20045;-65
2023/10/05 03:24:14;;;;;;;10.13;3.08;;;11.10;99.90;;;;;;5037403;28;20029;-65
2023/10/05 03:26:42;;;;;;;10.88;3.75;;;11.10;99.90;;;;;;5036791;28;20029;-66
2023/10/05 03:29:11;;;;;;;9.95;3.22;;;11.00;99.90;;;;;;5037545;28;20021;-66
2023/10/05 03:31:52;;;;;;;13.07;3.28;;;10.90;99.90;;;;;;5037496;28;20045;-66
2023/10/05 03:34:19;;;;;;;9.13;3.08;;;11.00;99.90;;;;;;5037327;28;20104;-66
2023/10/05 03:36:47;;;;;;;8.73;3.30;;;11.00;99.90;;;;;;5036508;28;20029;-65
2023/10/05 03:39:13;;;;;;;10.98;3.83;;;11.20;99.90;;;;;;5037299;28;20028;-66
2023/10/05 03:41:39;;;;;;;10.05;4.07;;;11.30;99.90;;;;;;5037201;28;20040;-66
2023/10/05 03:44:07;;;;;;;8.40;3.60;;;11.40;99.90;;;;;;5037530;28;20022;-66
2023/10/05 03:46:33;;;;;;;6.35;2.78;;;11.40;99.90;;;;;;5037129;28;20022;-66
2023/10/05 03:49:02;;;;;;;12.93;3.40;;;11.30;99.90;;;;;;5036553;28;20026;-66
2023/10/05 03:51:29;;;;;;;8.65;2.53;;;11.20;99.90;;;;;;5036113;28;20072;-65
2023/10/05 03:53:55;;;;;;;6.88;3.42;;;11.10;99.90;;;;;;5036272;28;20163;-66
2023/10/05 03:56:23;;;;;;;7.25;2.72;;;10.90;99.90;;;;;;5036149;28;20026;-66
2023/10/05 03:58:49;;;;;;;7.53;2.35;;;10.80;99.90;;;;;;5036854;28;20022;-66
2023/10/05 04:01:15;;;;;;;6.25;2.88;;;10.90;99.90;;;;;;5036997;28;20017;-66
2023/10/05 04:03:44;;;;;;;12.18;3.15;;;11.10;99.90;;;;;;5035989;28;20049;-66
2023/10/05 04:06:28;;;;;;;8.20;3.10;;;11.10;99.90;;;;;;5036322;28;20025;-66
2023/10/05 04:09:00;;;;;;;9.73;3.42;;;11.10;99.90;;;;;;5035949;28;20025;-66
2023/10/05 04:11:26;;;;;;;;;;;11.20;99.90;;;;;;5036397;28;20163;-66
2023/10/05 04:13:53;;;;;;;7.57;2.72;;;11.20;99.90;;;;;;5036228;28;19912;-66
2023/10/05 04:16:22;;;;;;;10.18;3.63;;;11.20;99.90;;;;;;5036800;28;20025;-66
2023/10/05 04:18:51;;;;;;;8.15;2.90;;;11.30;99.90;;;;;;5035933;28;20037;-65
2023/10/05 04:21:22;;;;;;;9.38;3.55;;;11.40;99.90;;;;;;5035868;28;20108;-66
2023/10/05 04:23:52;;;;;;;9.85;3.40;;;11.30;99.90;;;;;;5035973;28;20032;-66
2023/10/05 04:26:21;;;;;;;13.25;3.78;;;11.20;99.90;;;;;;5037122;28;20029;-66
2023/10/05 04:28:54;;;;;;;9.93;4.30;;;11.10;99.90;;;;;;5035643;28;20032;-65
2023/10/05 04:31:25;;;;;;;11.88;3.78;;;11.20;99.90;;;;;;5037005;28;20080;-65
2023/10/05 04:33:52;;;;;;;7.68;3.45;;;11.30;99.90;;;;;;5036613;28;20017;-65
2023/10/05 04:36:22;;;;;;;7.13;2.97;;;11.20;99.90;;;;;;5036515;28;20017;-66
2023/10/05 04:38:48;;;;;;;8.45;2.95;;;11.10;99.90;;;;;;5036550;28;20109;-66
2023/10/05 04:41:13;;;;;;;7.97;3.25;;;11.00;99.90;;;;;;5036486;28;20025;-66
2023/10/05 04:43:43;;;;;;;9.32;3.72;;;10.90;99.90;;;;;;5036725;28;20021;-66
2023/10/05 04:46:09;;;;;;;8.52;3.25;;;10.90;99.90;;;;;;5035680;28;20116;-65
2023/10/05 04:48:38;;;;;;;9.07;3.50;;;10.90;99.90;;;;;;5037686;28;20044;-66
2023/10/05 04:51:05;;;;;;;10.38;3.40;;;11.10;99.90;;;;;;5040640;28;20025;-66
2023/10/05 04:53:32;;;;;;;13.07;4.28;;;11.10;99.90;;;;;;5040559;28;20022;-66
2023/10/05 04:56:11;;;;;;;12.63;4.10;;;11.10;99.90;;;;;;5040421;28;20097;-66
2023/10/05 04:58:53;;;;;;;8.48;3.20;;;11.10;99.90;;;;;;5040044;28;20120;-66
2023/10/05 05:01:28;;;;;;;8.43;3.65;;;11.10;99.90;;;;;;5040260;28;20029;-66
2023/10/05 05:03:56;;;;;;;8.52;3.45;;;11.10;99.90;;;;;;5040593;28;20072;-66
2023/10/05 05:06:25;;;;;;;11.38;3.47;;;11.20;99.90;;;;;;5040440;28;20028;-66
2023/10/05 05:08:51;;;;;;;8.95;3.63;;;11.20;99.90;;;;;;5040162;28;20049;-66
2023/10/05 05:11:18;;;;;;;12.63;3.47;;;11.30;99.90;;;;;;5039177;28;20103;-66
2023/10/05 05:13:48;;;;;;;9.32;3.88;;;11.20;99.90;;;;;;5039226;28;20056;-66
2023/10/05 05:16:17;;;;;;;8.93;3.80;;;11.30;99.90;;;;;;5040346;28;20022;-66
2023/10/05 05:18:43;;;;;;;12.10;3.63;;;11.30;99.90;;;;;;5038748;28;20037;-66
2023/10/05 05:21:13;;;;;;;12.68;4.45;;;11.30;99.90;;;;;;5039976;28;20024;-66
2023/10/05 05:23:42;;;;;;;14.40;4.57;;;11.20;99.90;;;;;;5039775;28;20033;-66
2023/10/05 05:26:09;;;;;;;12.93;3.78;;;11.10;99.90;;;;;;5039776;28;20044;-66
2023/10/05 05:28:37;;;;;;;13.02;4.38;;;11.10;99.90;;;;;;5040058;28;20017;-66
2023/10/05 05:31:16;;;;;;;16.05;4.53;;;11.20;99.90;;;;;;5039614;28;20036;-66
2023/10/05 05:33:44;;;;;;;13.55;4.80;;;11.20;99.90;;;;;;5039727;28;20017;-66
2023/10/05 05:36:13;;;;;;;13.63;4.28;;;11.30;99.90;;;;;;5038989;28;20021;-66
2023/10/05 05:38:40;;;;;;;14.70;4.03;;;11.10;99.90;;;;;;5039466;28;20097;-66
2023/10/05 05:41:12;;;;;;;10.93;3.85;;;11.10;99.90;;;;;;5039573;28;20018;-66
2023/10/05 05:43:41;;;;;;;8.80;3.97;;;11.10;99.90;;;;;;5039726;28;20090;-66
2023/10/05 05:46:13;;;;;;;15.90;4.53;;;11.00;99.90;;;;;;5040039;28;20022;-66
2023/10/05 05:48:42;;;;;;;9.65;4.25;;;11.00;99.90;;;;;;5038448;28;20120;-66
2023/10/05 05:51:15;;;;;;;11.52;4.28;;;10.90;99.90;;;;;;5038392;28;20037;-66
2023/10/05 05:53:46;;;;;;;12.30;4.78;;;10.90;99.90;;;;;;5039718;28;20045;-66
2023/10/05 05:56:28;;;;;;;11.57;4.22;;;11.00;99.90;;;;;;5039451;28;20045;-66
2023/10/05 05:58:54;;;;;;;;;;;11.00;99.90;;;;;;5038486;28;20053;-66
2023/10/05 06:01:20;;;;;;;14.98;5.03;;;11.10;99.90;;;;;;5037926;28;19905;-66
2023/10/05 06:03:49;;;;;;;12.75;4.60;;;11.10;99.90;;;;;;5039325;28;20025;-65
2023/10/05 06:06:16;;;;;;;16.60;5.25;;;11.00;99.90;;;;;;5038232;28;20026;-65
2023/10/05 06:08:42;;;;;;;13.52;4.97;;;10.90;99.90;;;;;;5038938;28;20014;-65
2023/10/05 06:11:08;;;;;;;12.05;4.85;;;10.90;99.90;;;;;;5038084;28;20053;-66
2023/10/05 06:13:36;;;;;;;9.90;4.50;;;10.90;99.90;;;;;;5038896;28;20052;-66
2023/10/05 06:16:05;;;;;;;11.77;5.22;;;10.90;99.90;;;;;;5038878;28;20028;-66
2023/10/05 06:18:31;;;;;;;13.48;4.72;;;10.90;99.90;;;;;;5039709;28;20079;-66
2023/10/05 06:20:57;;;;;;;9.80;4.25;;;11.00;99.90;;;;;;5039117;28;20021;-66
2023/10/05 06:23:22;;;;;;;10.00;4.10;;;11.10;99.90;;;;;;5038795;28;20029;-65
2023/10/05 06:25:50;;;;;;;12.15;4.95;;;11.20;99.90;;;;;;5037998;28;20052;-66
2023/10/05 06:28:15;;;;;;;11.13;5.38;;;11.10;99.90;;;;;;5037787;28;20033;-66
2023/10/05 06:30:41;;;;;;;14.50;5.05;;;11.10;99.90;;;;;;5037897;28;20025;-65
2023/10/05 06:33:08;;;;;;;16.33;6.13;;;11.10;99.90;;;;;;5039280;28;20022;-66
2023/10/05 06:35:33;;;;;;;17.65;4.82;;;11.10;99.90;;;;;;5038032;28;20041;-66
2023/10/05 06:37:59;;;;;;;14.68;5.68;;;11.20;99.90;;;;;;5037653;28;20036;-65
2023/10/05 06:40:25;;;;;;;14.77;5.65;;;11.20;99.90;;;;;;5037441;28;20053;-65
2023/10/05 06:42:51;;;;;;;16.10;4.97;;;11.30;99.90;;;;;;5037493;28;20071;-66
2023/10/05 06:45:19;;;;;;;11.77;4.93;;;11.40;99.90;;;;;;5038822;28;20052;-66
2023/10/05 06:47:45;;;;;;;13.15;5.47;;;11.40;99.90;;;;;;5038293;28;20021;-66
2023/10/05 06:50:11;;;;;;;30.30;7.18;;;11.40;99.90;;;;;;5038574;28;20091;-66
2023/10/05 06:52:43;;;;;;;13.57;5.72;;;11.40;99.90;;;;;;5038666;28;20033;-66
2023/10/05 06:55:13;;;;;;;15.00;5.63;;;11.50;99.90;;;;;;5038181;28;20030;-66
2023/10/05 06:57:45;;;;;;;10.90;5.28;;;11.50;99.90;;;;;;5037968;28;20068;-66
2023/10/05 07:00:20;;;;;;;15.35;5.78;;;11.50;99.90;;;;;;5038113;28;20021;-66
2023/10/05 07:02:58;;;;;;;16.92;5.20;;;11.60;99.90;;;;;;5038073;28;20028;-66
2023/10/05 07:05:24;;;;;;;21.33;6.30;;;11.60;99.90;;;;;;5038157;28;20018;-66
2023/10/05 07:07:50;;;;;;;17.17;5.90;;;11.70;99.90;;;;;;5037990;28;20059;-66
2023/10/05 07:10:16;;;;;;;11.43;5.00;;;11.70;99.90;;;;;;5036913;28;20060;-66
2023/10/05 07:12:46;;;;;;;12.50;5.38;;;11.80;99.90;;;;;;5037879;28;20025;-66
2023/10/05 07:15:13;;;;;;;14.90;4.95;;;11.80;99.90;;;;;;5037807;28;20028;-66
2023/10/05 07:17:39;;;;;;;14.15;5.03;;;11.80;99.90;;;;;;5037777;28;20116;-66
2023/10/05 07:20:11;;;;;;;21.35;5.70;;;11.80;99.90;;;;;;5037899;28;20060;-66
2023/10/05 07:22:40;;;;;;;15.25;5.57;;;11.80;99.90;;;;;;5037911;28;20029;-66
2023/10/05 07:25:08;;;;;;;14.40;5.25;;;11.80;99.90;;;;;;5036943;28;20109;-66
2023/10/05 07:27:34;;;;;;;13.85;5.30;;;11.90;99.90;;;;;;5036495;28;20135;-66
2023/10/05 07:30:03;;;;;;;15.85;5.25;;;12.10;99.90;;;;;;5037528;28;20100;-66
2023/10/05 07:32:30;;;;;;;16.73;5.50;;;12.20;99.90;;;;;;5037638;28;20025;-66
2023/10/05 07:34:55;;;;;;;18.20;5.70;;;12.20;99.90;;;;;;5036789;28;20028;-66
2023/10/05 07:37:21;;;;;;;18.20;6.25;;;12.30;99.90;;;;;;5037165;28;20025;-66
2023/10/05 07:39:47;;;;;;;14.85;5.10;;;12.30;99.90;;;;;;5036489;28;20033;-66
2023/10/05 07:42:12;;;;;;;15.30;5.32;;;12.30;99.90;;;;;;5037476;28;20029;-66
2023/10/05 07:44:39;;;;;;;17.65;4.65;;;12.40;99.90;;;;;;5037360;28;20185;-66
2023/10/05 07:47:05;;;;;;;23.80;9.50;;;12.50;99.90;;;;;;5036207;28;20029;-66
2023/10/05 07:49:34;;;;;;;71.97;24.08;;;12.50;99.90;;;;;;5037475;28;20128;-66
2023/10/05 07:52:03;;;;;;;46.08;14.75;;;12.50;99.90;;;;;;5037263;28;20022;-66
2023/10/05 07:54:31;;;;;;;47.40;14.48;;;12.50;99.90;;;;;;5037134;28;20032;-66
2023/10/05 07:56:57;;;;;;;34.95;10.98;;;12.50;99.90;;;;;;5037386;28;20021;-66
2023/10/05 07:59:23;;;;;;;62.85;20.95;;;12.60;99.90;;;;;;5037035;28;20022;-66
2023/10/05 08:01:52;;;;;;;35.65;12.48;;;12.80;99.90;;;;;;5036967;28;20028;-66
2023/10/05 08:04:18;;;;;;;23.00;5.28;;;13.00;99.90;;;;;;5036206;28;20049;-66
2023/10/05 08:06:45;;;;;;;15.70;5.60;;;13.00;99.90;;;;;;5036987;28;20088;-65
2023/10/05 08:09:15;;;;;;;21.00;5.50;;;13.00;99.90;;;;;;5036314;28;20032;-66
2023/10/05 08:11:41;;;;;;;18.13;5.22;;;13.10;99.90;;;;;;5036042;28;20029;-66
2023/10/05 08:14:08;;;;;;;13.20;5.55;;;13.10;99.90;;;;;;5037148;28;20036;-66
2023/10/05 08:16:36;;;;;;;17.10;5.43;;;13.20;99.90;;;;;;5035808;28;20025;-66
2023/10/05 08:19:02;;;;;;;12.30;5.20;;;13.20;99.90;;;;;;5044532;22;20046;-68
2023/10/05 08:21:28;;;;;;;12.07;4.50;;;13.30;99.90;;;;;;5017090;28;20017;-68
2023/10/05 08:23:54;;;;;;;13.93;5.25;;;13.30;99.90;;;;;;5016440;28;20029;-68
2023/10/05 08:26:20;;;;;;;15.50;4.70;;;13.30;99.90;;;;;;5017200;28;20101;-68
2023/10/05 08:28:50;;;;;;;13.65;4.53;;;13.30;99.90;;;;;;5016911;28;20073;-68
2023/10/05 08:31:22;;;;;;;14.93;4.82;;;13.30;99.90;;;;;;5016169;28;20029;-68
2023/10/05 08:33:49;;;;;;;15.55;5.32;;;13.50;99.90;;;;;;5016322;28;20030;-68
2023/10/05 08:36:17;;;;;;;17.65;5.22;;;13.60;99.90;;;;;;5016287;28;20049;-68
2023/10/05 08:38:47;;;;;;;17.70;4.60;;;13.70;99.90;;;;;;5017411;28;20105;-67
2023/10/05 08:41:31;;;;;;;13.07;4.32;;;13.70;99.90;;;;;;5015971;28;20129;-67
2023/10/05 08:44:00;;;;;;;16.73;4.63;;;13.90;99.90;;;;;;5016086;28;20027;-68
2023/10/05 08:46:27;;;;;;;10.55;4.43;;;14.00;99.90;;;;;;5017186;28;20081;-68
2023/10/05 08:48:55;;;;;;;14.50;5.40;;;14.00;99.90;;;;;;5016872;28;20045;-68
2023/10/05 08:51:24;;;;;;;12.48;4.60;;;14.10;99.90;;;;;;5016806;28;20073;-67
2023/10/05 08:53:55;;;;;;;14.18;4.88;;;14.10;99.90;;;;;;5015725;28;20018;-68
2023/10/05 08:56:22;;;;;;;18.20;5.05;;;14.00;99.90;;;;;;5015914;28;20024;-68
2023/10/05 08:58:49;;;;;;;8.95;3.60;;;14.10;99.90;;;;;;5016642;28;20018;-68
2023/10/05 09:01:26;;;;;;;16.38;4.03;;;14.30;99.90;;;;;;5016726;28;20041;-68
2023/10/05 09:04:01;;;;;;;8.38;2.78;;;14.60;99.90;;;;;;5016081;28;20026;-68
2023/10/05 09:06:28;;;;;;;12.35;3.10;;;14.80;99.90;;;;;;5016017;28;20022;-68
2023/10/05 09:09:07;;;;;;;10.77;2.70;;;14.90;99.90;;;;;;5015735;28;20121;-68
2023/10/05 09:11:33;;;;;;;10.50;2.70;;;15.00;99.90;;;;;;5016250;28;20029;-68
2023/10/05 09:14:13;;;;;;;9.23;3.30;;;15.20;99.90;;;;;;5015668;28;20029;-68
2023/10/05 09:16:47;;;;;;;18.95;4.22;;;15.30;99.90;;;;;;5016488;28;20064;-67
2023/10/05 09:19:26;;;;;;;13.90;3.50;;;15.40;99.90;;;;;;5015861;28;20033;-67
2023/10/05 09:22:10;;;;;;;8.38;3.20;;;15.40;99.90;;;;;;5016587;28;20078;-68
2023/10/05 09:24:36;;;;;;;13.45;3.05;;;15.50;99.90;;;;;;5016751;28;20022;-67
2023/10/05 09:27:16;;;;;;;13.20;3.40;;;15.60;99.90;;;;;;5016590;28;20065;-68
2023/10/05 09:29:43;;;;;;;13.35;3.63;;;15.70;99.90;;;;;;5016826;28;20022;-67
2023/10/05 09:32:25;;;;;;;14.20;3.35;;;15.80;99.90;;;;;;5016427;28;20026;-67
2023/10/05 09:34:51;;;;;;;7.53;2.90;;;15.70;99.90;;;;;;5017094;28;20049;-67
2023/10/05 09:37:18;;;;;;;8.63;3.25;;;15.80;99.90;;;;;;5019854;28;20076;-67
2023/10/05 09:39:54;;;;;;;15.25;3.75;;;15.80;99.90;;;;;;5020374;28;20042;-67
2023/10/05 09:42:25;;;;;;;7.53;2.45;;;15.80;99.90;;;;;;5019794;28;20018;-68
2023/10/05 09:44:53;;;;;;;8.38;2.88;;;15.90;99.90;;;;;;5019865;28;20026;-67
2023/10/05 09:47:25;;;;;;;6.50;2.30;;;16.00;99.90;;;;;;5019983;28;20033;-67
2023/10/05 09:49:57;;;;;;;9.68;2.88;;;16.10;99.90;;;;;;5018774;28;20121;-67
2023/10/05 09:52:24;;;;;;;5.47;2.28;;;16.20;99.90;;;;;;5019793;28;20029;-67
2023/10/05 09:54:50;;;;;;;11.80;3.83;;;16.20;99.90;;;;;;5019822;28;20050;-67
2023/10/05 09:57:20;;;;;;;10.30;2.70;;;16.20;99.90;;;;;;5018533;28;20040;-67
2023/10/05 10:00:00;;;;;;;10.93;3.03;;;16.30;99.90;;;;;;5018436;28;20022;-67
2023/10/05 10:02:34;;;;;;;6.40;1.88;;;16.30;99.90;;;;;;5019474;28;20025;-67
2023/10/05 10:05:16;;;;;;;7.65;2.35;;;16.40;99.90;;;;;;5019432;28;20025;-67
2023/10/05 10:07:49;;;;;;;13.95;2.75;;;16.30;99.90;;;;;;5018418;28;20045;-67
2023/10/05 10:10:19;;;;;;;7.03;2.13;;;16.30;99.90;;;;;;5019347;28;20079;-68
2023/10/05 10:12:46;;;;;;;9.95;2.47;;;16.40;99.90;;;;;;5019158;28;20054;-67
2023/10/05 10:15:35;;;;;;;9.02;2.00;;;16.40;99.90;;;;;;5018415;28;20171;-67
2023/10/05 10:18:14;;;;;;;9.60;2.38;;;16.40;99.90;;;;;;5019038;28;20033;-67
2023/10/05 10:20:51;;;;;;;10.20;2.42;;;16.30;99.90;;;;;;5019200;28;20105;-67
2023/10/05 10:23:36;;;;;;;8.45;2.20;;;16.30;99.90;;;;;;5019383;28;20022;-67
2023/10/05 10:26:06;;;;;;;6.38;2.03;;;16.30;99.90;;;;;;5018996;28;20041;-67
2023/10/05 10:28:56;;;;;;;6.20;1.85;;;16.30;99.90;;;;;;5017903;28;20113;-67
2023/10/05 10:31:26;;;;;;;6.88;1.80;;;16.20;99.90;;;;;;5018823;28;20018;-67
2023/10/05 10:33:52;;;;;;;10.18;2.20;;;16.30;99.90;;;;;;5018908;28;20026;-67
2023/10/05 10:36:41;;;;;;;6.75;1.85;;;16.30;99.90;;;;;;5019074;28;20026;-67
2023/10/05 10:39:23;;;;;;;9.75;2.67;;;16.40;99.90;;;;;;5018595;28;20057;-67
2023/10/05 10:42:01;;;;;;;11.85;2.25;;;16.40;99.90;;;;;;5018828;28;20030;-67
2023/10/05 10:44:26;;;;;;;8.57;1.90;;;16.40;99.90;;;;;;5018260;28;20116;-67
2023/10/05 10:47:11;;;;;;;5.40;2.08;;;16.40;99.90;;;;;;5017475;28;20072;-67
2023/10/05 10:49:39;;;;;;;9.15;2.65;;;16.30;99.90;;;;;;5018884;28;20110;-67
2023/10/05 10:52:12;;;;;;;6.90;2.17;;;16.30;99.90;;;;;;5018822;28;20104;-67
2023/10/05 10:54:45;;;;;;;9.07;2.17;;;16.30;99.90;;;;;;5018719;28;20030;-67
2023/10/05 10:57:20;;;;;;;8.15;2.08;;;16.20;99.90;;;;;;5018268;28;20033;-67
2023/10/05 10:59:46;;;;;;;15.50;3.42;;;16.20;99.90;;;;;;5018718;28;20024;-68
2023/10/05 11:02:19;;;;;;;9.55;3.05;;;16.20;99.90;;;;;;5017591;28;20022;-67
2023/10/05 11:04:47;;;;;;;6.32;2.42;;;16.30;99.90;;;;;;5018901;28;20018;-67
2023/10/05 11:07:13;;;;;;;8.07;2.00;;;16.30;99.90;;;;;;5018147;28;20017;-67
2023/10/05 11:09:49;;;;;;;7.90;3.05;;;16.40;99.90;;;;;;5018233;28;20026;-67
2023/10/05 11:12:20;;;;;;;8.90;2.97;;;16.30;99.90;;;;;;5018128;28;20080;-67
2023/10/05 11:14:46;;;;;;;11.30;3.90;;;16.20;99.90;;;;;;5018303;28;20091;-67
2023/10/05 11:17:31;;;;;;;14.93;2.45;;;16.10;99.90;;;;;;5018014;28;20108;-68
2023/10/05 11:20:11;;;;;;;12.05;2.10;;;16.20;99.90;;;;;;5018987;28;20041;-67
2023/10/05 11:22:42;;;;;;;7.20;2.70;;;16.20;99.90;;;;;;5017077;28;20022;-67
2023/10/05 11:25:23;;;;;;;13.38;2.42;;;16.20;99.90;;;;;;5017926;28;20018;-68
2023/10/05 11:27:56;;;;;;;8.70;2.28;;;16.30;99.90;;;;;;5018206;28;20026;-68
2023/10/05 11:30:25;;;;;;;6.22;2.10;;;16.40;99.90;;;;;;5017774;28;20022;-68
2023/10/05 11:32:56;;;;;;;9.45;2.15;;;16.30;99.90;;;;;;5017620;28;20018;-67
2023/10/05 11:35:28;;;;;;;;;;;16.30;99.90;;;;;;5017364;28;20060;-67
2023/10/05 11:38:04;;;;;;;;;;;16.30;99.90;;;;;;5017905;28;19916;-68
2023/10/05 11:40:36;;;;;;;5.28;1.85;;;16.40;99.90;;;;;;5017699;28;19905;-67
2023/10/05 11:43:06;;;;;;;6.45;1.63;;;16.40;99.90;;;;;;5017651;28;20032;-67
2023/10/05 11:45:33;;;;;;;10.23;2.30;;;16.40;99.90;;;;;;5017741;28;20022;-68
2023/10/05 11:48:11;;;;;;;8.35;2.20;;;16.30;99.90;;;;;;5017360;28;20080;-67
2023/10/05 11:50:36;;;;;;;9.25;2.40;;;16.40;99.90;;;;;;5017499;28;20026;-67
2023/10/05 11:53:11;;;;;;;8.90;1.77;;;16.40;99.90;;;;;;5017716;28;20067;-67
2023/10/05 11:55:37;;;;;;;13.35;2.10;;;16.50;99.90;;;;;;5017814;28;20045;-67
2023/10/05 11:58:05;;;;;;;9.55;2.40;;;16.50;99.90;;;;;;5016343;28;20111;-68
2023/10/05 12:00:34;;;;;;;6.80;2.53;;;16.50;99.90;;;;;;5017467;28;20025;-68
2023/10/05 12:03:00;;;;;;;9.35;1.98;;;16.60;99.90;;;;;;5017223;28;20045;-68
2023/10/05 12:05:28;;;;;;;9.38;2.70;;;16.70;99.90;;;;;;5016514;28;20076;-68
2023/10/05 12:07:54;;;;;;;11.50;2.00;;;16.70;99.90;;;;;;5016204;28;20057;-68
2023/10/05 12:10:19;;;;;;;8.35;1.90;;;16.80;99.90;;;;;;5016450;28;20105;-68
2023/10/05 12:12:50;;;;;;;9.00;2.65;;;16.90;99.90;;;;;;5017500;28;20109;-68
2023/10/05 12:15:17;;;;;;;4.45;1.75;;;16.90;99.90;;;;;;5017505;28;20021;-67
2023/10/05 12:17:45;;;;;;;4.93;2.13;;;17.00;99.90;;;;;;5016926;28;20022;-68
2023/10/05 12:20:14;;;;;;;7.55;2.08;;;17.00;99.90;;;;;;5017150;28;20018;-67
2023/10/05 12:22:41;;;;;;;5.85;2.33;;;17.00;99.90;;;;;;5017449;28;20014;-68
2023/10/05 12:25:14;;;;;;;7.60;2.25;;;17.10;99.90;;;;;;5017033;28;20100;-68
2023/10/05 12:27:40;;;;;;;7.45;1.75;;;17.10;99.90;;;;;;5016908;28;20029;-68
2023/10/05 12:30:15;;;;;;;13.23;2.33;;;17.20;99.90;;;;;;5017091;28;20029;-68
2023/10/05 12:32:41;;;;;;;8.55;1.80;;;17.30;99.90;;;;;;5016997;28;20034;-68
2023/10/05 12:35:13;;;;;;;12.00;2.70;;;17.50;99.90;;;;;;5017270;28;20037;-68
2023/10/05 12:37:44;;;;;;;8.57;3.00;;;17.60;99.90;;;;;;5017068;28;20022;-68
2023/10/05 12:40:26;;;;;;;9.45;2.10;;;17.60;99.90;;;;;;5016979;28;20026;-68
2023/10/05 12:42:52;;;;;;;;;;;17.50;99.90;;;;;;5017180;28;20053;-68
2023/10/05 12:45:22;;;;;;;5.97;1.52;;;17.50;99.90;;;;;;5017134;28;19913;-67
2023/10/05 12:47:53;;;;;;;8.52;2.15;;;17.40;99.90;;;;;;5017145;28;20100;-68
2023/10/05 12:50:20;;;;;;;4.93;1.47;;;17.40;99.90;;;;;;5017125;28;20026;-67
2023/10/05 12:52:50;;;;;;;9.50;1.98;;;17.30;99.90;;;;;;5016868;28;20323;-68
2023/10/05 12:55:15;;;;;;;5.32;1.60;;;17.30;99.90;;;;;;5015777;28;20117;-68
2023/10/05 12:57:44;;;;;;;5.05;1.38;;;17.30;99.90;;;;;;5016026;28;20113;-68
2023/10/05 13:00:19;;;;;;;6.38;2.10;;;17.40;99.90;;;;;;5016971;28;20018;-67
2023/10/05 13:02:48;;;;;;;7.25;1.80;;;17.30;99.90;;;;;;5016868;28;20022;-67
2023/10/05 13:05:18;;;;;;;6.28;1.83;;;17.30;99.90;;;;;;5015916;28;20030;-67
2023/10/05 13:07:43;;;;;;;6.65;2.08;;;17.30;99.90;;;;;;5016574;28;20084;-67
2023/10/05 13:10:21;;;;;;;7.28;1.73;;;17.30;99.90;;;;;;5018624;28;20030;-68
2023/10/05 13:12:51;;;;;;;6.68;2.05;;;17.40;99.90;;;;;;5019641;28;20053;-68